createdAt,value
2022-09-23T00:01:14.774Z,9.60
2022-09-23T00:03:43.149Z,9.60
2022-09-23T00:06:12.395Z,9.50
2022-09-23T00:08:39.949Z,9.60
2022-09-23T00:11:08.284Z,9.50
2022-09-23T00:13:36.003Z,9.50
2022-09-23T00:16:07.943Z,9.50
2022-09-23T00:18:35.226Z,9.40
2022-09-23T00:21:06.181Z,9.40
2022-09-23T00:23:33.490Z,9.40
2022-09-23T00:26:01.479Z,9.30
2022-09-23T00:28:29.239Z,9.30
2022-09-23T00:30:56.621Z,9.30
2022-09-23T00:33:23.931Z,9.30
2022-09-23T00:35:51.230Z,9.20
2022-09-23T00:38:18.662Z,9.20
2022-09-23T00:40:46.252Z,9.20
2022-09-23T00:43:14.067Z,9.20
2022-09-23T00:45:42.229Z,9.10
2022-09-23T00:48:10.559Z,9.10
2022-09-23T00:50:39.418Z,9.10
2022-09-23T00:53:07.950Z,9.10
2022-09-23T00:55:41.175Z,9.00
2022-09-23T00:58:11.016Z,9.00
2022-09-23T01:00:38.851Z,9.00
2022-09-23T01:03:06.650Z,9.00
2022-09-23T01:05:34.211Z,8.90
2022-09-23T01:08:01.846Z,8.90
2022-09-23T01:10:33.593Z,8.80
2022-09-23T01:13:04.078Z,8.80
2022-09-23T01:15:39.356Z,8.80
2022-09-23T01:18:21.910Z,8.70
2022-09-23T01:21:14.307Z,8.80
2022-09-23T01:23:47.548Z,8.70
2022-09-23T01:26:32.479Z,8.60
2022-09-23T01:29:08.539Z,8.60
2022-09-23T01:31:50.435Z,8.60
2022-09-23T01:34:24.290Z,8.60
2022-09-23T01:37:25.014Z,8.50
2022-09-23T01:40:04.469Z,8.50
2022-09-23T01:42:39.558Z,8.50
2022-09-23T01:45:21.972Z,8.50
2022-09-23T01:47:54.945Z,8.40
2022-09-23T01:50:43.656Z,8.40
2022-09-23T01:53:18.038Z,8.40
2022-09-23T01:55:47.617Z,8.40
2022-09-23T01:58:20.922Z,8.40
2022-09-23T02:00:59.931Z,8.40
2022-09-23T02:03:55.969Z,8.40
2022-09-23T02:06:28.351Z,8.40
2022-09-23T02:08:58.395Z,8.30
2022-09-23T02:11:25.688Z,8.30
2022-09-23T02:14:07.911Z,8.40
2022-09-23T02:16:56.474Z,8.30
2022-09-23T02:19:35.087Z,8.30
2022-09-23T02:22:08.491Z,8.30
2022-09-23T02:24:37.827Z,8.30
2022-09-23T02:27:08.466Z,8.30
2022-09-23T02:30:02.163Z,8.30
2022-09-23T02:32:45.033Z,8.20
2022-09-23T02:35:25.546Z,8.20
2022-09-23T02:38:02.598Z,8.20
2022-09-23T02:40:35.145Z,8.10
2022-09-23T02:43:12.915Z,8.10
2022-09-23T02:45:40.279Z,8.10
2022-09-23T02:48:12.327Z,8.10
2022-09-23T02:50:39.594Z,8.10
2022-09-23T02:53:07.031Z,8.10
2022-09-23T02:55:34.329Z,8.10
2022-09-23T02:58:02.311Z,8.10
2022-09-23T03:00:43.626Z,8.10
2022-09-23T03:03:35.495Z,8.10
2022-09-23T03:06:07.487Z,8.10
2022-09-23T03:08:48.638Z,8.00
2022-09-23T03:11:17.032Z,8.00
2022-09-23T03:14:05.177Z,8.00
2022-09-23T03:16:48.498Z,7.90
2022-09-23T03:19:42.275Z,7.90
2022-09-23T03:22:14.159Z,7.90
2022-09-23T03:24:44.776Z,7.90
2022-09-23T03:27:14.841Z,7.90
2022-09-23T03:29:47.966Z,7.90
2022-09-23T03:32:17.490Z,7.90
2022-09-23T03:34:45.789Z,7.90
2022-09-23T03:37:44.608Z,7.90
2022-09-23T03:40:35.536Z,7.90
2022-09-23T03:43:05.078Z,7.90
2022-09-23T03:45:32.945Z,7.90
2022-09-23T03:48:00.678Z,7.90
2022-09-23T03:50:28.226Z,7.80
2022-09-23T03:52:55.717Z,7.80
2022-09-23T03:55:22.983Z,7.80
2022-09-23T03:57:50.342Z,7.80
2022-09-23T04:00:17.711Z,7.70
2022-09-23T04:02:45.757Z,7.70
2022-09-23T04:05:13.815Z,7.70
2022-09-23T04:07:41.316Z,7.70
2022-09-23T04:10:09.957Z,7.70
2022-09-23T04:12:37.426Z,7.70
2022-09-23T04:15:05.320Z,7.60
2022-09-23T04:17:32.629Z,7.60
2022-09-23T04:19:59.891Z,7.50
2022-09-23T04:22:27.153Z,7.60
2022-09-23T04:24:54.680Z,7.50
2022-09-23T04:27:22.003Z,7.50
2022-09-23T04:29:49.261Z,7.50
2022-09-23T04:32:16.570Z,7.50
2022-09-23T04:34:43.911Z,7.50
2022-09-23T04:37:11.213Z,7.50
2022-09-23T04:39:38.526Z,7.50
2022-09-23T04:42:05.939Z,7.50
2022-09-23T04:44:34.852Z,7.50
2022-09-23T04:47:02.207Z,7.50
2022-09-23T04:49:33.651Z,7.40
2022-09-23T04:52:02.774Z,7.40
2022-09-23T04:54:30.139Z,7.40
2022-09-23T04:56:57.436Z,7.40
2022-09-23T04:59:24.984Z,7.40
2022-09-23T05:01:54.590Z,7.30
2022-09-23T05:04:21.917Z,7.30
2022-09-23T05:06:49.236Z,7.40
2022-09-23T05:09:17.349Z,7.30
2022-09-23T05:11:45.458Z,7.40
2022-09-23T05:14:13.111Z,7.30
2022-09-23T05:16:40.801Z,7.30
2022-09-23T05:19:08.193Z,7.30
2022-09-23T05:21:36.553Z,7.30
2022-09-23T05:24:04.030Z,7.30
2022-09-23T05:26:31.936Z,7.30
2022-09-23T05:28:59.793Z,7.30
2022-09-23T05:31:28.219Z,7.30
2022-09-23T05:33:57.461Z,7.30
2022-09-23T05:36:25.014Z,7.30
2022-09-23T05:38:52.653Z,7.30
2022-09-23T05:41:20.834Z,7.30
2022-09-23T05:43:48.176Z,7.40
2022-09-23T05:46:17.070Z,7.40
2022-09-23T05:48:46.017Z,7.40
2022-09-23T05:51:15.092Z,7.50
2022-09-23T05:53:45.452Z,7.50
2022-09-23T05:56:16.563Z,7.60
2022-09-23T05:58:44.040Z,7.60
2022-09-23T06:01:12.007Z,7.70
2022-09-23T06:03:39.536Z,7.80
2022-09-23T06:06:07.611Z,7.90
2022-09-23T06:08:35.014Z,7.90
2022-09-23T06:11:07.610Z,8.00
2022-09-23T06:13:38.104Z,8.10
2022-09-23T06:16:11.626Z,8.10
2022-09-23T06:18:40.178Z,8.20
2022-09-23T06:21:07.508Z,8.30
2022-09-23T06:23:37.286Z,8.30
2022-09-23T06:26:08.031Z,8.40
2022-09-23T06:28:37.658Z,8.50
2022-09-23T06:31:13.302Z,8.60
2022-09-23T06:33:42.681Z,8.60
2022-09-23T06:36:10.366Z,8.70
2022-09-23T06:38:41.756Z,8.80
2022-09-23T06:41:09.259Z,8.90
2022-09-23T06:43:36.603Z,9.00
2022-09-23T06:46:04.956Z,9.10
2022-09-23T06:48:35.719Z,9.20
2022-09-23T06:51:04.989Z,9.20
2022-09-23T06:53:32.472Z,9.30
2022-09-23T06:56:05.579Z,9.30
2022-09-23T06:58:33.353Z,9.40
2022-09-23T07:01:11.694Z,9.50
2022-09-23T07:03:39.113Z,9.60
2022-09-23T07:06:06.837Z,9.70
2022-09-23T07:08:34.823Z,9.70
2022-09-23T07:11:06.328Z,9.80
2022-09-23T07:13:33.733Z,9.90
2022-09-23T07:16:02.180Z,10.00
2022-09-23T07:18:36.171Z,10.00
2022-09-23T07:21:15.214Z,10.10
2022-09-23T07:23:43.595Z,10.20
2022-09-23T07:26:10.985Z,10.30
2022-09-23T07:28:38.596Z,10.40
2022-09-23T07:31:22.501Z,10.50
2022-09-23T07:33:56.170Z,10.60
2022-09-23T07:36:23.735Z,10.70
2022-09-23T07:38:51.511Z,10.80
2022-09-23T07:41:19.222Z,10.90
2022-09-23T07:43:47.486Z,11.00
2022-09-23T07:46:16.866Z,11.10
2022-09-23T07:48:45.051Z,11.20
2022-09-23T07:51:36.404Z,11.30
2022-09-23T07:54:07.324Z,11.40
2022-09-23T07:56:35.847Z,11.40
2022-09-23T07:59:04.101Z,11.50
2022-09-23T08:01:36.474Z,11.50
2022-09-23T08:04:06.746Z,11.70
2022-09-23T08:06:34.075Z,11.70
2022-09-23T08:09:01.676Z,11.80
2022-09-23T08:11:29.077Z,11.90
2022-09-23T08:13:56.598Z,11.90
2022-09-23T08:16:23.900Z,12.00
2022-09-23T08:18:51.376Z,12.10
2022-09-23T08:21:20.303Z,12.10
2022-09-23T08:23:47.823Z,12.20
2022-09-23T08:26:20.619Z,12.30
2022-09-23T08:28:53.846Z,12.40
2022-09-23T08:31:22.087Z,12.50
2022-09-23T08:33:59.087Z,12.50
2022-09-23T08:36:26.935Z,12.60
2022-09-23T08:38:55.223Z,12.70
2022-09-23T08:41:44.244Z,12.70
2022-09-23T08:44:25.166Z,12.80
2022-09-23T08:46:54.735Z,12.90
2022-09-23T08:49:28.572Z,13.00
2022-09-23T08:51:55.950Z,13.00
2022-09-23T08:54:31.787Z,13.10
2022-09-23T08:56:59.817Z,13.20
2022-09-23T08:59:41.773Z,13.30
2022-09-23T09:02:22.719Z,13.40
2022-09-23T09:04:52.874Z,13.50
2022-09-23T09:07:36.977Z,13.60
2022-09-23T09:10:16.827Z,13.70
2022-09-23T09:13:07.517Z,13.80
2022-09-23T09:16:06.391Z,13.90
2022-09-23T09:18:33.718Z,13.90
2022-09-23T09:21:08.483Z,14.00
2022-09-23T09:23:54.549Z,14.10
2022-09-23T09:26:23.938Z,14.20
2022-09-23T09:29:35.049Z,14.40
2022-09-23T09:32:30.312Z,14.50
2022-09-23T09:34:59.954Z,14.50
2022-09-23T09:37:31.741Z,14.60
2022-09-23T09:39:59.324Z,14.60
2022-09-23T09:42:40.388Z,14.70
2022-09-23T09:45:34.813Z,14.80
2022-09-23T09:48:03.446Z,14.90
2022-09-23T09:50:52.194Z,14.90
2022-09-23T09:53:20.171Z,15.00
2022-09-23T09:56:04.578Z,15.10
2022-09-23T09:58:53.711Z,15.20
2022-09-23T10:01:32.531Z,15.30
2022-09-23T10:04:20.539Z,15.30
2022-09-23T10:07:27.755Z,15.40
2022-09-23T10:09:58.306Z,15.50
2022-09-23T10:12:29.055Z,15.60
2022-09-23T10:14:56.907Z,15.70
2022-09-23T10:17:34.470Z,15.70
2022-09-23T10:20:06.876Z,15.70
2022-09-23T10:22:36.384Z,15.80
2022-09-23T10:25:07.819Z,15.90
2022-09-23T10:27:36.007Z,16.00
2022-09-23T10:30:23.895Z,16.00
2022-09-23T10:32:53.114Z,16.10
2022-09-23T10:35:22.503Z,16.20
2022-09-23T10:37:53.552Z,16.30
2022-09-23T10:40:49.847Z,16.40
2022-09-23T10:43:50.961Z,16.50
2022-09-23T10:46:39.092Z,16.50
2022-09-23T10:49:09.925Z,16.60
2022-09-23T10:51:49.755Z,16.60
2022-09-23T10:54:36.023Z,16.60
2022-09-23T10:57:42.519Z,16.70
2022-09-23T11:00:23.403Z,16.70
2022-09-23T11:03:12.990Z,16.80
2022-09-23T11:06:01.805Z,16.90
2022-09-23T11:08:37.867Z,17.00
2022-09-23T11:11:34.046Z,17.00
2022-09-23T11:14:29.011Z,17.00
2022-09-23T11:17:17.709Z,17.10
2022-09-23T11:19:55.950Z,17.20
2022-09-23T11:22:45.629Z,17.30
2022-09-23T11:25:37.160Z,17.30
2022-09-23T11:28:10.664Z,17.40
2022-09-23T11:31:00.042Z,17.40
2022-09-23T11:34:04.926Z,17.50
2022-09-23T11:36:44.659Z,17.60
2022-09-23T11:39:43.348Z,17.70
2022-09-23T11:42:15.967Z,17.70
2022-09-23T11:44:47.038Z,17.80
2022-09-23T11:47:23.633Z,17.90
2022-09-23T11:50:16.901Z,18.00
2022-09-23T11:52:48.894Z,18.10
2022-09-23T11:55:23.242Z,18.00
2022-09-23T11:58:22.940Z,18.00
2022-09-23T12:01:01.328Z,18.00
2022-09-23T12:03:48.109Z,18.00
2022-09-23T12:06:20.246Z,18.00
2022-09-23T12:08:47.560Z,18.00
2022-09-23T12:11:23.818Z,18.00
2022-09-23T12:14:12.463Z,18.00
2022-09-23T12:16:56.102Z,18.00
2022-09-23T12:19:55.883Z,18.00
2022-09-23T12:22:41.699Z,18.00
2022-09-23T12:25:31.666Z,18.10
2022-09-23T12:28:05.085Z,18.10
2022-09-23T12:30:34.399Z,18.20
2022-09-23T12:33:24.436Z,18.30
2022-09-23T12:36:11.315Z,18.30
2022-09-23T12:38:40.366Z,18.40
2022-09-23T12:41:26.087Z,18.50
2022-09-23T12:44:21.092Z,18.40
2022-09-23T12:46:48.504Z,18.40
2022-09-23T12:49:24.123Z,18.30
2022-09-23T12:52:18.171Z,18.40
2022-09-23T12:54:52.518Z,18.40
2022-09-23T12:57:35.057Z,18.40
2022-09-23T13:00:14.273Z,18.40
2022-09-23T13:02:41.543Z,18.50
2022-09-23T13:05:27.532Z,18.40
2022-09-23T13:08:05.314Z,18.50
2022-09-23T13:10:42.070Z,18.50
2022-09-23T13:13:22.882Z,18.40
2022-09-23T13:15:50.197Z,18.40
2022-09-23T13:18:20.733Z,18.40
2022-09-23T13:20:48.911Z,18.40
2022-09-23T13:23:21.831Z,18.50
2022-09-23T13:25:51.444Z,18.50
2022-09-23T13:28:36.927Z,18.60
2022-09-23T13:31:14.310Z,18.70
2022-09-23T13:33:46.612Z,18.60
2022-09-23T13:36:15.391Z,18.60
2022-09-23T13:38:42.804Z,18.60
2022-09-23T13:41:17.970Z,18.60
2022-09-23T13:43:58.709Z,18.60
2022-09-23T13:46:30.588Z,18.60
2022-09-23T13:48:57.894Z,18.70
2022-09-23T13:51:27.784Z,18.70
2022-09-23T13:53:56.274Z,18.70
2022-09-23T13:56:24.942Z,18.70
2022-09-23T13:58:52.402Z,18.70
2022-09-23T14:01:33.868Z,18.70
2022-09-23T14:04:02.392Z,18.70
2022-09-23T14:06:32.856Z,18.80
2022-09-23T14:09:00.802Z,18.80
2022-09-23T14:11:33.336Z,18.70
2022-09-23T14:14:03.500Z,18.70
2022-09-23T14:16:30.845Z,18.80
2022-09-23T14:18:59.496Z,18.80
2022-09-23T14:21:38.270Z,18.80
2022-09-23T14:24:32.371Z,18.80
2022-09-23T14:27:07.054Z,18.80
2022-09-23T14:29:39.493Z,18.80
2022-09-23T14:32:17.944Z,18.80
2022-09-23T14:35:05.335Z,18.80
2022-09-23T14:38:01.358Z,18.80
2022-09-23T14:40:39.051Z,18.90
2022-09-23T14:43:25.129Z,18.90
2022-09-23T14:45:58.804Z,18.90
2022-09-23T14:48:27.358Z,18.80
2022-09-23T14:50:58.793Z,18.90
2022-09-23T14:53:40.351Z,18.80
2022-09-23T14:56:07.664Z,18.70
2022-09-23T14:59:01.676Z,18.80
2022-09-23T15:01:32.963Z,18.80
2022-09-23T15:04:15.877Z,18.80
2022-09-23T15:06:54.837Z,18.80
2022-09-23T15:09:29.509Z,18.90
2022-09-23T15:12:01.637Z,18.90
2022-09-23T15:14:39.237Z,18.90
2022-09-23T15:17:25.958Z,18.90
2022-09-23T15:20:04.392Z,18.90
2022-09-23T15:22:31.881Z,18.80
2022-09-23T15:25:17.219Z,18.80
2022-09-23T15:27:56.156Z,18.80
2022-09-23T15:30:23.544Z,18.70
2022-09-23T15:32:50.915Z,18.70
2022-09-23T15:35:22.594Z,18.70
2022-09-23T15:37:50.695Z,18.70
2022-09-23T15:40:28.438Z,18.60
2022-09-23T15:42:57.516Z,18.50
2022-09-23T15:45:33.482Z,18.40
2022-09-23T15:48:25.059Z,18.40
2022-09-23T15:50:52.670Z,18.30
2022-09-23T15:53:21.985Z,18.30
2022-09-23T15:55:51.710Z,18.30
2022-09-23T15:58:20.546Z,18.30
2022-09-23T16:00:55.980Z,18.20
2022-09-23T16:03:30.766Z,18.20
2022-09-23T16:06:00.995Z,18.10
2022-09-23T16:08:29.113Z,18.10
2022-09-23T16:10:56.548Z,18.00
2022-09-23T16:13:23.940Z,18.00
2022-09-23T16:15:51.397Z,17.90
2022-09-23T16:18:18.736Z,17.80
2022-09-23T16:20:46.392Z,17.80
2022-09-23T16:23:34.482Z,17.70
2022-09-23T16:26:07.598Z,17.60
2022-09-23T16:28:34.980Z,17.60
2022-09-23T16:31:02.336Z,17.60
2022-09-23T16:33:29.999Z,17.40
2022-09-23T16:35:57.614Z,17.30
2022-09-23T16:38:24.939Z,17.20
2022-09-23T16:40:52.880Z,17.20
2022-09-23T16:43:22.027Z,17.10
2022-09-23T16:45:49.722Z,17.10
2022-09-23T16:48:19.669Z,17.00
2022-09-23T16:50:47.717Z,17.00
2022-09-23T16:53:17.436Z,17.00
2022-09-23T16:55:44.897Z,17.00
2022-09-23T16:58:12.335Z,16.90
2022-09-23T17:00:58.341Z,16.80
2022-09-23T17:03:41.247Z,16.80
2022-09-23T17:06:13.861Z,16.70
2022-09-23T17:08:41.883Z,16.60
2022-09-23T17:11:10.890Z,16.60
2022-09-23T17:13:41.019Z,16.50
2022-09-23T17:16:09.658Z,16.40
2022-09-23T17:18:38.842Z,16.30
2022-09-23T17:21:06.928Z,16.30
2022-09-23T17:23:35.522Z,16.20
2022-09-23T17:26:02.977Z,16.10
2022-09-23T17:28:30.366Z,16.00
2022-09-23T17:30:58.504Z,16.00
2022-09-23T17:33:30.206Z,15.90
2022-09-23T17:35:59.128Z,15.90
2022-09-23T17:38:29.190Z,15.80
2022-09-23T17:40:57.552Z,15.70
2022-09-23T17:43:25.765Z,15.70
2022-09-23T17:45:57.928Z,15.60
2022-09-23T17:48:26.288Z,15.60
2022-09-23T17:50:57.840Z,15.60
2022-09-23T17:53:26.008Z,15.50
2022-09-23T17:55:57.659Z,15.50
2022-09-23T17:58:26.366Z,15.50
2022-09-23T18:00:54.481Z,15.50
2022-09-23T18:03:22.707Z,15.40
2022-09-23T18:05:50.021Z,15.40
2022-09-23T18:08:17.432Z,15.40
2022-09-23T18:10:44.863Z,15.30
2022-09-23T18:13:12.279Z,15.30
2022-09-23T18:15:40.314Z,15.30
2022-09-23T18:18:07.823Z,15.30
2022-09-23T18:20:35.117Z,15.20
2022-09-23T18:23:02.459Z,15.20
2022-09-23T18:25:39.256Z,15.10
2022-09-23T18:28:07.043Z,15.00
2022-09-23T18:30:34.338Z,15.00
2022-09-23T18:33:02.110Z,15.00
2022-09-23T18:35:30.867Z,14.90
2022-09-23T18:37:58.196Z,14.90
2022-09-23T18:40:25.563Z,14.80
2022-09-23T18:42:52.956Z,14.80
2022-09-23T18:45:20.275Z,14.80
2022-09-23T18:48:06.125Z,14.70
2022-09-23T18:50:39.436Z,14.70
2022-09-23T18:53:07.562Z,14.60
2022-09-23T18:55:38.071Z,14.60
2022-09-23T18:58:07.359Z,14.50
2022-09-23T19:00:35.014Z,14.50
2022-09-23T19:03:02.594Z,14.40
2022-09-23T19:05:29.906Z,14.40
2022-09-23T19:07:57.760Z,14.40
2022-09-23T19:10:25.564Z,14.30
2022-09-23T19:12:52.825Z,14.30
2022-09-23T19:15:20.123Z,14.30
2022-09-23T19:17:47.500Z,14.20
2022-09-23T19:20:14.817Z,14.20
2022-09-23T19:22:47.241Z,14.20
2022-09-23T19:25:14.610Z,14.10
2022-09-23T19:27:41.939Z,14.10
2022-09-23T19:30:11.159Z,14.00
2022-09-23T19:32:40.421Z,14.00
2022-09-23T19:35:08.597Z,13.90
2022-09-23T19:37:35.960Z,14.00
2022-09-23T19:40:03.339Z,13.90
2022-09-23T19:42:30.939Z,13.90
2022-09-23T19:44:58.275Z,13.90
2022-09-23T19:47:25.599Z,13.80
2022-09-23T19:49:52.876Z,13.80
2022-09-23T19:52:20.174Z,13.80
2022-09-23T19:54:48.673Z,13.80
2022-09-23T19:57:16.141Z,13.80
2022-09-23T19:59:43.564Z,13.80
2022-09-23T20:02:11.586Z,13.80
2022-09-23T20:04:38.882Z,13.80
2022-09-23T20:07:06.174Z,13.70
2022-09-23T20:09:33.902Z,13.70
2022-09-23T20:12:02.485Z,13.70
2022-09-23T20:14:31.233Z,13.70
2022-09-23T20:17:00.055Z,13.70
2022-09-23T20:19:27.398Z,13.70
2022-09-23T20:22:13.294Z,13.60
2022-09-23T20:24:40.633Z,13.70
2022-09-23T20:27:10.874Z,13.60
2022-09-23T20:29:38.266Z,13.60
2022-09-23T20:32:06.012Z,13.60
2022-09-23T20:34:33.703Z,13.60
2022-09-23T20:37:01.079Z,13.60
2022-09-23T20:39:28.352Z,13.60
2022-09-23T20:41:55.751Z,13.60
2022-09-23T20:44:23.222Z,13.60
2022-09-23T20:46:51.390Z,13.60
2022-09-23T20:49:19.605Z,13.60
2022-09-23T20:51:50.395Z,13.60
2022-09-23T20:54:20.655Z,13.60
2022-09-23T20:56:48.055Z,13.60
2022-09-23T20:59:17.543Z,13.60
2022-09-23T21:01:45.371Z,13.60
2022-09-23T21:04:12.808Z,13.60
2022-09-23T21:06:40.110Z,13.60
2022-09-23T21:09:07.529Z,13.60
2022-09-23T21:11:34.805Z,13.60
2022-09-23T21:14:02.577Z,13.60
2022-09-23T21:16:30.247Z,13.60
2022-09-23T21:18:57.909Z,13.60
2022-09-23T21:21:25.377Z,13.70
2022-09-23T21:23:52.692Z,13.70
2022-09-23T21:26:22.628Z,13.80
2022-09-23T21:28:51.130Z,13.80
2022-09-23T21:31:23.559Z,13.80
2022-09-23T21:34:02.109Z,13.80
2022-09-23T21:36:30.839Z,13.80
2022-09-23T21:38:59.041Z,13.80
2022-09-23T21:41:26.349Z,13.80
2022-09-23T21:43:55.601Z,13.80
2022-09-23T21:46:23.072Z,13.80
2022-09-23T21:48:53.355Z,13.80
2022-09-23T21:51:24.956Z,13.80
2022-09-23T21:53:54.278Z,13.80
2022-09-23T21:56:32.903Z,13.70
2022-09-23T21:59:00.236Z,13.70
2022-09-23T22:01:33.614Z,13.70
2022-09-23T22:04:13.242Z,13.60
2022-09-23T22:06:40.750Z,13.60
2022-09-23T22:09:10.818Z,13.60
2022-09-23T22:11:56.905Z,13.60
2022-09-23T22:14:27.606Z,13.60
2022-09-23T22:16:58.940Z,13.60
2022-09-23T22:19:27.595Z,13.60
2022-09-23T22:21:56.135Z,13.60
2022-09-23T22:24:23.567Z,13.60
2022-09-23T22:26:50.915Z,13.50
2022-09-23T22:29:36.964Z,13.50
2022-09-23T22:32:24.577Z,13.50
2022-09-23T22:34:52.710Z,13.50
2022-09-23T22:37:23.725Z,13.40
2022-09-23T22:39:51.039Z,13.40
2022-09-23T22:42:21.195Z,13.40
2022-09-23T22:44:49.029Z,13.40
2022-09-23T22:47:17.942Z,13.30
2022-09-23T22:49:46.375Z,13.30
2022-09-23T22:52:14.953Z,13.30
2022-09-23T22:54:42.318Z,13.30
2022-09-23T22:57:09.635Z,13.30
2022-09-23T22:59:39.488Z,13.30
2022-09-23T23:02:08.175Z,13.30
2022-09-23T23:04:36.477Z,13.20
2022-09-23T23:07:04.309Z,13.20
2022-09-23T23:09:31.592Z,13.30
2022-09-23T23:11:59.023Z,13.20
2022-09-23T23:14:26.356Z,13.20
2022-09-23T23:16:54.381Z,13.20
2022-09-23T23:19:21.838Z,13.20
2022-09-23T23:21:49.564Z,13.20
2022-09-23T23:24:21.330Z,13.10
2022-09-23T23:26:48.842Z,13.10
2022-09-23T23:29:17.336Z,13.10
2022-09-23T23:31:44.723Z,13.10
2022-09-23T23:34:13.573Z,13.10
2022-09-23T23:36:41.580Z,13.10
2022-09-23T23:39:09.170Z,13.10
2022-09-23T23:41:37.555Z,13.10
2022-09-23T23:44:05.494Z,13.10
2022-09-23T23:46:32.911Z,13.00
2022-09-23T23:49:00.582Z,13.10
2022-09-23T23:51:27.965Z,13.00
2022-09-23T23:53:55.522Z,13.00
2022-09-23T23:56:23.934Z,13.00
2022-09-23T23:58:55.464Z,13.00
